Time;durP1;ratioP1;P1;durP2;ratioP2;P2;SDS_P1;SDS_P2;PMS_P1;PMS_P2;Temp;Humidity;BMP_temperature;BMP_pressure;BME280_temperature;BME280_humidity;BME280_pressure;Samples;Min_cycle;Max_cycle;Signal;HPM_P1;HPM_P2
2022/08/12 00:43:31;;;;;;;;;;;;;;;;;;6242031;23;19915;-77
2022/08/12 00:48:41;;;;;;;;;;;;;;;;;;6215713;23;19911;-77
2022/08/12 00:51:07;;;;;;;;;;;;;;;;;;6243050;23;19930;-76
2022/08/12 00:53:32;;;;;;;;;;;;;;;;;;6251416;23;20246;-77
2022/08/12 00:55:58;;;;;;;;;;;;;;;;;;6258223;23;19908;-78
2022/08/12 00:58:23;;;;;;;;;;;;;;;;;;6253775;23;20222;-77
2022/08/12 01:00:50;;;;;;;;;;;;;;;;;;6244738;23;19930;-77
2022/08/12 01:03:15;;;;;;;;;;;;;;;;;;6244233;23;19987;-76
2022/08/12 01:11:27;;;;;;;;;;;;;;;;;;6248199;23;19934;-78
2022/08/12 01:11:31;;;;;;;;;;;;;;;;;;6250019;23;19915;-77
2022/08/12 01:13:56;;;;;;;;;;;;;;;;;;6243991;23;20355;-77
2022/08/12 01:16:22;;;;;;;;;;;;;;;;;;6244127;23;19907;-78
2022/08/12 01:18:48;;;;;;;;;;;;;;;;;;6243997;23;19930;-77
2022/08/12 01:21:16;;;;;;;;;;;;;;;;;;6244149;22;20328;-77
2022/08/12 01:23:42;;;;;;;;;;;;;;;;;;6243777;23;19978;-78
2022/08/12 01:26:07;;;;;;;;;;;;;;;;;;6244218;23;19907;-76
2022/08/12 01:28:33;;;;;;;;;;;;;;;;;;6243724;23;20005;-77
2022/08/12 01:30:59;;;;;;;;;;;;;;;;;;6244251;23;19908;-77
2022/08/12 01:33:25;;;;;;;;;;;;;;;;;;6243573;23;19964;-78
2022/08/12 01:35:52;;;;;;;;;;;;;;;;;;6244187;23;19957;-77
2022/08/12 01:38:17;;;;;;;;;;;;;;;;;;6243802;23;19907;-79
2022/08/12 01:40:44;;;;;;;;;;;;;;;;;;6243820;23;20294;-78
2022/08/12 01:43:10;;;;;;;;;;;;;;;;;;6243878;23;19908;-77
2022/08/12 01:45:35;;;;;;;;;;;;;;;;;;6244027;23;19903;-77
2022/08/12 01:48:01;;;;;;;;;;;;;;;;;;6244186;23;19907;-78
2022/08/12 01:50:27;;;;;;;;;;;;;;;;;;6243469;22;19916;-78
2022/08/12 01:52:52;;;;;;;;;;;;;;;;;;6243811;23;19907;-77
2022/08/12 01:55:18;;;;;;;;;;;;;;;;;;6217485;23;19916;-76
2022/08/12 01:57:43;;;;;;;;;;;;;;;;;;6243981;23;19908;-77
2022/08/12 02:00:12;;;;;;;;;;;;;;;;;;6244311;23;20233;-76
2022/08/12 02:02:38;;;;;;;;;;;;;;;;;;6243131;23;19913;-77
2022/08/12 02:13:37;;;;;;;;;;;;;;;;;;6230602;23;20295;-77
2022/08/12 02:16:03;;;;;;;;;;;;;;;;;;6217132;23;19957;-77
2022/08/12 02:18:29;;;;;;;;;;;;;;;;;;6243853;23;19911;-77
2022/08/12 02:20:55;;;;;;;;;;;;;;;;;;6243665;23;19912;-76
2022/08/12 02:23:21;;;;;;;;;;;;;;;;;;6243404;22;20370;-77
2022/08/12 02:25:47;;;;;;;;;;;;;;;;;;6216464;23;19935;-77
2022/08/12 02:28:13;;;;;;;;;;;;;;;;;;6243357;23;19975;-77
2022/08/12 02:30:38;;;;;;;;;;;;;;;;;;6244620;23;19925;-76
2022/08/12 02:33:04;;;;;;;;;;;;;;;;;;6168474;23;19986;-77
2022/08/12 02:35:30;;;;;;;;;;;;;;;;;;6243029;23;19958;-79
2022/08/12 02:37:55;;;;;;;;;;;;;;;;;;6243312;23;19907;-79
2022/08/12 02:40:21;;;;;;;;;;;;;;;;;;6243419;23;19908;-78
2022/08/12 02:42:47;;;;;;;;;;;;;;;;;;6243144;23;19938;-77
2022/08/12 02:45:12;;;;;;;;;;;;;;;;;;6243295;23;19995;-77
2022/08/12 02:47:38;;;;;;;;;;;;;;;;;;6242955;23;19903;-76
2022/08/12 02:50:04;;;;;;;;;;;;;;;;;;6243199;23;19994;-78
2022/08/12 02:52:31;;;;;;;;;;;;;;;;;;6242875;23;19907;-77
2022/08/12 02:54:57;;;;;;;;;;;;;;;;;;6243294;23;19923;-76
2022/08/12 02:57:22;;;;;;;;;;;;;;;;;;6243557;23;19908;-78
2022/08/12 02:59:48;;;;;;;;;;;;;;;;;;6245157;23;20363;-76
2022/08/12 03:02:14;;;;;;;;;;;;;;;;;;6250807;23;19907;-76
2022/08/12 03:04:39;;;;;;;;;;;;;;;;;;6218617;23;20299;-77
2022/08/12 03:07:05;;;;;;;;;;;;;;;;;;6243473;23;19911;-76
2022/08/12 03:09:31;;;;;;;;;;;;;;;;;;6230251;23;20175;-76
2022/08/12 03:11:58;;;;;;;;;;;;;;;;;;6216599;23;19949;-76
2022/08/12 03:14:23;;;;;;;;;;;;;;;;;;6242537;23;19916;-77
2022/08/12 03:16:49;;;;;;;;;;;;;;;;;;6243106;23;19950;-76
2022/08/12 03:19:15;;;;;;;;;;;;;;;;;;6243002;23;19966;-77
2022/08/12 03:21:40;;;;;;;;;;;;;;;;;;6242757;22;20342;-76
2022/08/12 03:24:08;;;;;;;;;;;;;;;;;;6242792;23;19903;-77
2022/08/12 03:26:33;;;;;;;;;;;;;;;;;;6215754;23;19918;-77
2022/08/12 03:29:00;;;;;;;;;;;;;;;;;;6242996;23;19908;-77
2022/08/12 03:31:27;;;;;;;;;;;;;;;;;;6243228;23;19922;-75
2022/08/12 03:33:53;;;;;;;;;;;;;;;;;;6242769;23;19930;-76
2022/08/12 03:36:19;;;;;;;;;;;;;;;;;;6242923;23;19907;-76
2022/08/12 03:38:49;;;;;;;;;;;;;;;;;;6242430;23;19912;-77
2022/08/12 03:41:36;;;;;;;;;;;;;;;;;;6242813;23;19918;-77
2022/08/12 04:00:27;;;;;;;;;;;;;;;;;;6255094;23;19915;-80
2022/08/12 04:03:02;;;;;;;;;;;;;;;;;;6258895;23;19915;-77
2022/08/12 04:05:28;;;;;;;;;;;;;;;;;;6248480;23;19938;-77
2022/08/12 04:07:53;;;;;;;;;;;;;;;;;;6243286;23;19914;-78
2022/08/12 04:10:19;;;;;;;;;;;;;;;;;;6242765;23;20301;-77
2022/08/12 04:15:29;;;;;;;;;;;;;;;;;;6242391;23;20406;-76
2022/08/12 04:17:54;;;;;;;;;;;;;;;;;;6242816;23;19907;-78
2022/08/12 04:20:21;;;;;;;;;;;;;;;;;;6242767;23;19915;-78
2022/08/12 04:22:46;;;;;;;;;;;;;;;;;;6242127;22;19946;-78
2022/08/12 04:25:12;;;;;;;;;;;;;;;;;;6242781;23;19907;-77
2022/08/12 04:27:38;;;;;;;;;;;;;;;;;;6242245;23;19911;-77
2022/08/12 04:30:05;;;;;;;;;;;;;;;;;;6242438;23;19907;-77
2022/08/12 04:32:31;;;;;;;;;;;;;;;;;;6242318;23;19969;-79
2022/08/12 04:34:57;;;;;;;;;;;;;;;;;;6186660;23;19919;-80
2022/08/12 04:37:23;;;;;;;;;;;;;;;;;;6216262;23;20464;-77
2022/08/12 04:39:49;;;;;;;;;;;;;;;;;;6242262;23;19986;-78
2022/08/12 04:42:15;;;;;;;;;;;;;;;;;;6242303;23;20264;-79
2022/08/12 04:44:41;;;;;;;;;;;;;;;;;;6242179;23;19907;-79
2022/08/12 04:47:06;;;;;;;;;;;;;;;;;;6242395;23;19962;-78
2022/08/12 04:49:33;;;;;;;;;;;;;;;;;;6241844;23;20349;-78
2022/08/12 04:55:29;;;;;;;;;;;;;;;;;;6256983;23;19915;-77
2022/08/12 04:57:54;;;;;;;;;;;;;;;;;;6218183;23;19942;-79
2022/08/12 05:00:20;;;;;;;;;;;;;;;;;;6242748;23;19907;-78
2022/08/12 05:02:46;;;;;;;;;;;;;;;;;;6242581;23;19907;-79
2022/08/12 05:05:11;;;;;;;;;;;;;;;;;;6242391;23;19914;-78
2022/08/12 05:07:37;;;;;;;;;;;;;;;;;;6242150;23;19908;-78
2022/08/12 05:10:02;;;;;;;;;;;;;;;;;;6215504;23;20392;-78
2022/08/12 05:12:29;;;;;;;;;;;;;;;;;;6242683;23;19907;-78
2022/08/12 05:14:55;;;;;;;;;;;;;;;;;;6190148;23;19919;-78
2022/08/12 05:17:20;;;;;;;;;;;;;;;;;;6242436;23;19907;-78
2022/08/12 05:19:46;;;;;;;;;;;;;;;;;;6241887;23;19943;-79
2022/08/12 05:22:12;;;;;;;;;;;;;;;;;;6242380;22;19994;-77
2022/08/12 05:24:37;;;;;;;;;;;;;;;;;;6215613;23;19908;-78
2022/08/12 05:27:03;;;;;;;;;;;;;;;;;;6242645;23;20337;-79
2022/08/12 05:29:29;;;;;;;;;;;;;;;;;;6246174;23;19962;-79
2022/08/12 05:31:55;;;;;;;;;;;;;;;;;;6243654;23;20284;-78
2022/08/12 05:34:20;;;;;;;;;;;;;;;;;;6240568;23;19915;-77
2022/08/12 05:36:46;;;;;;;;;;;;;;;;;;6242163;23;20241;-79
2022/08/12 05:39:11;;;;;;;;;;;;;;;;;;6243992;23;19946;-80
2022/08/12 05:41:38;;;;;;;;;;;;;;;;;;6244298;23;20263;-79
2022/08/12 05:44:04;;;;;;;;;;;;;;;;;;6244686;23;19943;-78
2022/08/12 05:46:29;;;;;;;;;;;;;;;;;;6244099;23;19919;-78
2022/08/12 05:48:55;;;;;;;;;;;;;;;;;;6243603;23;19920;-78
2022/08/12 05:51:23;;;;;;;;;;;;;;;;;;6244265;23;19907;-77
2022/08/12 05:53:50;;;;;;;;;;;;;;;;;;6243627;23;20321;-79
2022/08/12 05:56:15;;;;;;;;;;;;;;;;;;6244206;23;19969;-79
2022/08/12 05:58:41;;;;;;;;;;;;;;;;;;6243861;23;19911;-79
2022/08/12 06:01:07;;;;;;;;;;;;;;;;;;6244236;23;19907;-80
2022/08/12 06:03:32;;;;;;;;;;;;;;;;;;6244384;23;20341;-79
2022/08/12 06:05:58;;;;;;;;;;;;;;;;;;6244895;23;19911;-81
2022/08/12 06:08:24;;;;;;;;;;;;;;;;;;6244205;23;19914;-79
2022/08/12 06:10:49;;;;;;;;;;;;;;;;;;6243813;23;19941;-79
2022/08/12 06:13:15;;;;;;;;;;;;;;;;;;6244206;23;19911;-79
2022/08/12 06:15:41;;;;;;;;;;;;;;;;;;6243873;23;19954;-79
2022/08/12 06:18:06;;;;;;;;;;;;;;;;;;6243786;23;19938;-78
2022/08/12 06:20:32;;;;;;;;;;;;;;;;;;6244134;23;19908;-78
2022/08/12 06:22:58;;;;;;;;;;;;;;;;;;6242185;22;20293;-79
2022/08/12 06:25:27;;;;;;;;;;;;;;;;;;6243802;23;19907;-78
2022/08/12 06:27:53;;;;;;;;;;;;;;;;;;6243562;23;19914;-79
2022/08/12 06:30:19;;;;;;;;;;;;;;;;;;6243585;23;19908;-78
2022/08/12 06:32:46;;;;;;;;;;;;;;;;;;6243613;23;20088;-80
2022/08/12 06:35:11;;;;;;;;;;;;;;;;;;6243446;23;19945;-80
2022/08/12 06:37:38;;;;;;;;;;;;;;;;;;6243926;23;20399;-79
2022/08/12 06:40:04;;;;;;;;;;;;;;;;;;6243946;23;19914;-78
2022/08/12 06:42:48;;;;;;;;;;;;;;;;;;6217360;23;19982;-83
2022/08/12 06:45:13;;;;;;;;;;;;;;;;;;6244206;23;19907;-81
2022/08/12 06:47:40;;;;;;;;;;;;;;;;;;6250535;23;19914;-79
2022/08/12 06:50:05;;;;;;;;;;;;;;;;;;6251609;23;19965;-78
2022/08/12 06:52:31;;;;;;;;;;;;;;;;;;6244145;23;19908;-78
2022/08/12 06:54:58;;;;;;;;;;;;;;;;;;6243564;23;20347;-79
2022/08/12 06:57:26;;;;;;;;;;;;;;;;;;6245482;23;19986;-80
2022/08/12 06:59:51;;;;;;;;;;;;;;;;;;6247627;23;19918;-78
2022/08/12 07:02:18;;;;;;;;;;;;;;;;;;6255842;23;19990;-80
2022/08/12 07:04:46;;;;;;;;;;;;;;;;;;6256314;23;19903;-77
2022/08/12 07:07:11;;;;;;;;;;;;;;;;;;6217762;23;19907;-79
2022/08/12 07:09:37;;;;;;;;;;;;;;;;;;6244231;23;19907;-82
2022/08/12 07:12:03;;;;;;;;;;;;;;;;;;6246997;23;19995;-79
2022/08/12 07:14:29;;;;;;;;;;;;;;;;;;6243362;23;20358;-79
2022/08/12 07:17:00;;;;;;;;;;;;;;;;;;6243164;23;19990;-79
2022/08/12 07:19:26;;;;;;;;;;;;;;;;;;6216515;23;19942;-78
2022/08/12 07:21:52;;;;;;;;;;;;;;;;;;6243095;22;19907;-79
2022/08/12 07:24:18;;;;;;;;;;;;;;;;;;6216614;23;20351;-79
2022/08/12 07:26:43;;;;;;;;;;;;;;;;;;6243273;23;19908;-79
2022/08/12 07:29:09;;;;;;;;;;;;;;;;;;6243036;23;19911;-77
2022/08/12 07:31:35;;;;;;;;;;;;;;;;;;6216478;23;19911;-80
2022/08/12 07:34:00;;;;;;;;;;;;;;;;;;6242627;23;20344;-81
2022/08/12 07:36:26;;;;;;;;;;;;;;;;;;6243700;23;19912;-79
2022/08/12 07:38:51;;;;;;;;;;;;;;;;;;6242832;23;19915;-79
2022/08/12 07:41:17;;;;;;;;;;;;;;;;;;6243089;23;19930;-80
2022/08/12 07:43:43;;;;;;;;;;;;;;;;;;6216095;23;19990;-79
2022/08/12 07:46:08;;;;;;;;;;;;;;;;;;6243165;23;19908;-78
2022/08/12 07:48:35;;;;;;;;;;;;;;;;;;6242451;22;20041;-79
2022/08/12 07:51:01;;;;;;;;;;;;;;;;;;6242924;23;20264;-80
2022/08/12 07:53:26;;;;;;;;;;;;;;;;;;6242825;23;20570;-79
2022/08/12 07:55:52;;;;;;;;;;;;;;;;;;6242307;23;20178;-80
2022/08/12 07:58:18;;;;;;;;;;;;;;;;;;6243237;23;19908;-80
2022/08/12 08:00:44;;;;;;;;;;;;;;;;;;6240556;23;19907;-78
2022/08/12 08:03:12;;;;;;;;;;;;;;;;;;6242794;23;19907;-78
2022/08/12 08:05:46;;;;;;;;;;;;;;;;;;6242436;23;19918;-79
2022/08/12 08:08:12;;;;;;;;;;;;;;;;;;6216034;23;19922;-79
2022/08/12 08:10:37;;;;;;;;;;;;;;;;;;6242192;23;19957;-81
2022/08/12 08:13:05;;;;;;;;;;;;;;;;;;6242643;23;20030;-80
2022/08/12 08:15:32;;;;;;;;;;;;;;;;;;6242192;23;20348;-80
2022/08/12 08:18:00;;;;;;;;;;;;;;;;;;6242323;23;19914;-79
2022/08/12 08:20:27;;;;;;;;;;;;;;;;;;6242594;23;19934;-79
2022/08/12 08:22:52;;;;;;;;;;;;;;;;;;6242457;22;20467;-79
2022/08/12 08:25:19;;;;;;;;;;;;;;;;;;6242331;23;20120;-80
2022/08/12 08:27:45;;;;;;;;;;;;;;;;;;6242439;23;19914;-81
2022/08/12 08:30:11;;;;;;;;;;;;;;;;;;6215565;23;19915;-79
2022/08/12 08:32:37;;;;;;;;;;;;;;;;;;6241075;23;19908;-78
2022/08/12 08:35:03;;;;;;;;;;;;;;;;;;6242176;23;19961;-79
2022/08/12 08:37:29;;;;;;;;;;;;;;;;;;6242869;23;19911;-78
2022/08/12 08:42:35;;;;;;;;;;;;;;;;;;6245104;23;19919;-82
2022/08/12 08:42:40;;;;;;;;;;;;;;;;;;6247737;23;19990;-80
2022/08/12 08:45:11;;;;;;;;;;;;;;;;;;6242649;23;19911;-80
2022/08/12 08:47:38;;;;;;;;;;;;;;;;;;6205084;23;19938;-78
2022/08/12 08:50:04;;;;;;;;;;;;;;;;;;6241965;22;19915;-80
2022/08/12 08:52:30;;;;;;;;;;;;;;;;;;6250901;23;19908;-79
2022/08/12 08:54:55;;;;;;;;;;;;;;;;;;6217000;23;19923;-78
2022/08/12 08:57:21;;;;;;;;;;;;;;;;;;6242386;23;19914;-80
2022/08/12 08:59:47;;;;;;;;;;;;;;;;;;6242236;23;19938;-80
2022/08/12 09:02:13;;;;;;;;;;;;;;;;;;6242307;23;19946;-80
2022/08/12 09:04:39;;;;;;;;;;;;;;;;;;6242404;23;19907;-80
2022/08/12 09:07:04;;;;;;;;;;;;;;;;;;6242210;23;19907;-78
2022/08/12 09:09:30;;;;;;;;;;;;;;;;;;6242116;23;19907;-77
2022/08/12 09:14:42;;;;;;;;;;;;;;;;;;6244137;23;20209;-81
2022/08/12 09:17:07;;;;;;;;;;;;;;;;;;6244232;23;19907;-80
2022/08/12 09:19:33;;;;;;;;;;;;;;;;;;6244211;23;19934;-79
2022/08/12 09:21:59;;;;;;;;;;;;;;;;;;6217360;23;20328;-81
2022/08/12 09:24:25;;;;;;;;;;;;;;;;;;6244312;23;19915;-81
2022/08/12 09:26:50;;;;;;;;;;;;;;;;;;6244106;23;20367;-79
2022/08/12 09:29:19;;;;;;;;;;;;;;;;;;6244200;23;20402;-80
2022/08/12 09:31:45;;;;;;;;;;;;;;;;;;6242701;23;19907;-77
2022/08/12 09:34:10;;;;;;;;;;;;;;;;;;6244190;23;19950;-79
2022/08/12 09:36:37;;;;;;;;;;;;;;;;;;6244252;23;19918;-77
2022/08/12 09:39:03;;;;;;;;;;;;;;;;;;6243853;23;19907;-79
2022/08/12 09:41:29;;;;;;;;;;;;;;;;;;6244234;23;20340;-78
2022/08/12 09:46:40;;;;;;;;;;;;;;;;;;6244362;23;19987;-78
2022/08/12 09:49:08;;;;;;;;;;;;;;;;;;6243636;23;19919;-79
2022/08/12 09:51:33;;;;;;;;;;;;;;;;;;6244118;23;20691;-80
2022/08/12 09:54:01;;;;;;;;;;;;;;;;;;6244182;23;20014;-78
2022/08/12 09:56:30;;;;;;;;;;;;;;;;;;6244975;23;20019;-79
2022/08/12 09:58:56;;;;;;;;;;;;;;;;;;6225543;23;19907;-79
2022/08/12 10:01:23;;;;;;;;;;;;;;;;;;6253658;23;19926;-79
2022/08/12 10:03:48;;;;;;;;;;;;;;;;;;6245985;23;19935;-81
2022/08/12 10:06:14;;;;;;;;;;;;;;;;;;6243011;23;20332;-81
2022/08/12 10:08:40;;;;;;;;;;;;;;;;;;6244833;23;19908;-80
2022/08/12 10:13:51;;;;;;;;;;;;;;;;;;6244088;23;19915;-79
2022/08/12 10:16:17;;;;;;;;;;;;;;;;;;6244464;23;19927;-81
2022/08/12 10:18:43;;;;;;;;;;;;;;;;;;6217736;23;19930;-81
2022/08/12 10:21:10;;;;;;;;;;;;;;;;;;6219081;23;19977;-82
2022/08/12 10:23:35;;;;;;;;;;;;;;;;;;6244006;22;20272;-81
2022/08/12 10:31:30;;;;;;;;;;;;;;;;;;6244641;23;19914;-80
2022/08/12 10:33:56;;;;;;;;;;;;;;;;;;6257421;23;19925;-79
2022/08/12 10:36:22;;;;;;;;;;;;;;;;;;6246222;23;19907;-81
2022/08/12 10:38:48;;;;;;;;;;;;;;;;;;6245024;23;20004;-81
2022/08/12 10:44:01;;;;;;;;;;;;;;;;;;6218051;23;20386;-81
2022/08/12 10:46:27;;;;;;;;;;;;;;;;;;6245596;23;20040;-81
2022/08/12 10:48:52;;;;;;;;;;;;;;;;;;6245232;22;20030;-81
2022/08/12 10:51:18;;;;;;;;;;;;;;;;;;6245740;23;19908;-82
2022/08/12 10:53:43;;;;;;;;;;;;;;;;;;6245125;23;20363;-82
2022/08/12 10:56:10;;;;;;;;;;;;;;;;;;6244875;23;19985;-80
2022/08/12 10:58:36;;;;;;;;;;;;;;;;;;6244921;23;20089;-82
2022/08/12 11:01:04;;;;;;;;;;;;;;;;;;6244005;23;19911;-81
2022/08/12 11:03:33;;;;;;;;;;;;;;;;;;6244549;23;19930;-81
2022/08/12 11:05:58;;;;;;;;;;;;;;;;;;6244325;23;20340;-80
2022/08/12 11:08:26;;;;;;;;;;;;;;;;;;6244849;23;19949;-82
2022/08/12 11:10:52;;;;;;;;;;;;;;;;;;6244744;23;20010;-82
2022/08/12 11:13:19;;;;;;;;;;;;;;;;;;6244702;23;19930;-80
2022/08/12 11:15:44;;;;;;;;;;;;;;;;;;6244625;23;19938;-80
2022/08/12 11:18:10;;;;;;;;;;;;;;;;;;6244832;23;20336;-81
2022/08/12 11:20:36;;;;;;;;;;;;;;;;;;6244339;23;19913;-81
2022/08/12 11:23:01;;;;;;;;;;;;;;;;;;6245996;22;19907;-80
2022/08/12 11:25:27;;;;;;;;;;;;;;;;;;6244263;23;19939;-80
2022/08/12 11:27:53;;;;;;;;;;;;;;;;;;6244601;23;19914;-79
2022/08/12 11:30:19;;;;;;;;;;;;;;;;;;6244214;23;19982;-81
2022/08/12 11:32:44;;;;;;;;;;;;;;;;;;6244718;23;19914;-80
2022/08/12 11:35:10;;;;;;;;;;;;;;;;;;6243686;23;19915;-82
2022/08/12 11:37:39;;;;;;;;;;;;;;;;;;6244181;23;19965;-80
2022/08/12 11:40:05;;;;;;;;;;;;;;;;;;6245076;23;19930;-82
2022/08/12 11:42:30;;;;;;;;;;;;;;;;;;6244634;23;19907;-80
2022/08/12 11:44:56;;;;;;;;;;;;;;;;;;6244119;23;19914;-81
2022/08/12 11:47:22;;;;;;;;;;;;;;;;;;6244105;23;19995;-80
2022/08/12 11:49:47;;;;;;;;;;;;;;;;;;6245644;22;20594;-81
2022/08/12 11:52:13;;;;;;;;;;;;;;;;;;6245866;23;19911;-81
2022/08/12 11:54:38;;;;;;;;;;;;;;;;;;6245810;23;19961;-80
2022/08/12 11:57:04;;;;;;;;;;;;;;;;;;6245608;23;20375;-81
2022/08/12 11:59:30;;;;;;;;;;;;;;;;;;6245556;23;20261;-81
2022/08/12 12:01:55;;;;;;;;;;;;;;;;;;6245523;23;20365;-82
2022/08/12 12:04:21;;;;;;;;;;;;;;;;;;6245558;23;19926;-81
2022/08/12 12:06:47;;;;;;;;;;;;;;;;;;6246085;23;19915;-80
2022/08/12 12:09:12;;;;;;;;;;;;;;;;;;6245949;23;19947;-81
2022/08/12 12:11:38;;;;;;;;;;;;;;;;;;6245959;23;19908;-80
2022/08/12 12:14:04;;;;;;;;;;;;;;;;;;6252544;23;20289;-80
2022/08/12 12:16:29;;;;;;;;;;;;;;;;;;6246167;23;19935;-78
2022/08/12 12:18:55;;;;;;;;;;;;;;;;;;6245680;23;20303;-82
2022/08/12 12:21:20;;;;;;;;;;;;;;;;;;6245527;22;19969;-81
2022/08/12 12:23:46;;;;;;;;;;;;;;;;;;6223525;23;19980;-79
2022/08/12 12:26:11;;;;;;;;;;;;;;;;;;6203433;23;20414;-81
2022/08/12 12:28:40;;;;;;;;;;;;;;;;;;6248244;23;19914;-81
2022/08/12 12:31:05;;;;;;;;;;;;;;;;;;6245560;23;19911;-81
2022/08/12 12:33:31;;;;;;;;;;;;;;;;;;6231662;23;19961;-81
2022/08/12 12:35:57;;;;;;;;;;;;;;;;;;6244745;23;19907;-81
2022/08/12 12:38:22;;;;;;;;;;;;;;;;;;6217767;23;19911;-80
2022/08/12 12:40:48;;;;;;;;;;;;;;;;;;6245605;23;19907;-82
2022/08/12 12:43:14;;;;;;;;;;;;;;;;;;6244191;23;20348;-82
2022/08/12 12:45:39;;;;;;;;;;;;;;;;;;6244900;23;19998;-81
2022/08/12 12:48:05;;;;;;;;;;;;;;;;;;6247675;23;19908;-80
2022/08/12 12:50:31;;;;;;;;;;;;;;;;;;6215602;23;20260;-81
2022/08/12 12:52:56;;;;;;;;;;;;;;;;;;6241963;23;19915;-81
2022/08/12 12:55:22;;;;;;;;;;;;;;;;;;6248806;23;19919;-81
2022/08/12 12:57:49;;;;;;;;;;;;;;;;;;6252558;23;19935;-82
2022/08/12 13:00:14;;;;;;;;;;;;;;;;;;6262947;23;19907;-80
2022/08/12 13:02:40;;;;;;;;;;;;;;;;;;6264086;23;19907;-79
2022/08/12 13:05:06;;;;;;;;;;;;;;;;;;6250081;23;19915;-81
2022/08/12 13:07:32;;;;;;;;;;;;;;;;;;6249469;23;20289;-80
2022/08/12 13:09:58;;;;;;;;;;;;;;;;;;6248481;23;19907;-81
2022/08/12 13:12:23;;;;;;;;;;;;;;;;;;6247635;23;20244;-81
2022/08/12 13:14:50;;;;;;;;;;;;;;;;;;6220744;23;20295;-81
2022/08/12 13:17:16;;;;;;;;;;;;;;;;;;6247163;23;19912;-81
2022/08/12 13:19:41;;;;;;;;;;;;;;;;;;6247197;23;20341;-81
2022/08/12 13:22:19;;;;;;;;;;;;;;;;;;6247414;22;19911;-81
2022/08/12 13:24:45;;;;;;;;;;;;;;;;;;6247688;23;19961;-81
2022/08/12 13:27:10;;;;;;;;;;;;;;;;;;6247372;23;19911;-79
2022/08/12 13:29:37;;;;;;;;;;;;;;;;;;6247974;23;20303;-79
2022/08/12 13:32:03;;;;;;;;;;;;;;;;;;6246440;23;19990;-80
2022/08/12 13:34:28;;;;;;;;;;;;;;;;;;6247644;23;19958;-81
2022/08/12 13:36:55;;;;;;;;;;;;;;;;;;6247383;23;19986;-79
2022/08/12 13:39:21;;;;;;;;;;;;;;;;;;6221850;23;20315;-81
2022/08/12 13:41:47;;;;;;;;;;;;;;;;;;6221399;23;20336;-81
2022/08/12 13:44:12;;;;;;;;;;;;;;;;;;6247613;23;20720;-82
2022/08/12 13:46:40;;;;;;;;;;;;;;;;;;6247226;23;19994;-80
2022/08/12 13:49:10;;;;;;;;;;;;;;;;;;6247142;23;19923;-82
2022/08/12 13:51:35;;;;;;;;;;;;;;;;;;6221042;23;19911;-82
2022/08/12 13:54:03;;;;;;;;;;;;;;;;;;6248395;23;19939;-80
2022/08/12 13:56:32;;;;;;;;;;;;;;;;;;6252687;23;19908;-81
2022/08/12 13:58:58;;;;;;;;;;;;;;;;;;6246121;23;19990;-80
2022/08/12 14:01:24;;;;;;;;;;;;;;;;;;6219100;23;19908;-81
2022/08/12 14:03:52;;;;;;;;;;;;;;;;;;6246621;23;19914;-81
2022/08/12 14:06:17;;;;;;;;;;;;;;;;;;6247014;23;19914;-82
2022/08/12 14:08:43;;;;;;;;;;;;;;;;;;6245627;23;19907;-79
2022/08/12 14:11:09;;;;;;;;;;;;;;;;;;6246585;23;19912;-82
2022/08/12 14:13:38;;;;;;;;;;;;;;;;;;6219518;23;19908;-81
2022/08/12 14:16:04;;;;;;;;;;;;;;;;;;6249221;23;19914;-82
2022/08/12 14:18:29;;;;;;;;;;;;;;;;;;6259161;23;19907;-79
2022/08/12 14:21:00;;;;;;;;;;;;;;;;;;6247800;23;19918;-82
2022/08/12 14:23:26;;;;;;;;;;;;;;;;;;6247083;22;19912;-82
2022/08/12 14:25:52;;;;;;;;;;;;;;;;;;6246319;23;19960;-81
2022/08/12 14:28:17;;;;;;;;;;;;;;;;;;6246276;23;19986;-81
2022/08/12 14:30:44;;;;;;;;;;;;;;;;;;6246540;23;19907;-81
2022/08/12 14:33:10;;;;;;;;;;;;;;;;;;6245512;23;19908;-81
2022/08/12 14:35:36;;;;;;;;;;;;;;;;;;6245235;23;19919;-80
2022/08/12 14:38:02;;;;;;;;;;;;;;;;;;6245628;23;20018;-81
2022/08/12 14:40:27;;;;;;;;;;;;;;;;;;6244932;23;19918;-82
2022/08/12 14:42:53;;;;;;;;;;;;;;;;;;6245520;23;19908;-80
2022/08/12 14:45:19;;;;;;;;;;;;;;;;;;6245474;23;19938;-81
2022/08/12 14:47:44;;;;;;;;;;;;;;;;;;6193916;23;19908;-82
2022/08/12 14:50:11;;;;;;;;;;;;;;;;;;6245223;23;19946;-80
2022/08/12 14:52:41;;;;;;;;;;;;;;;;;;6245443;23;19942;-81
2022/08/12 14:55:07;;;;;;;;;;;;;;;;;;6243980;23;19916;-81
2022/08/12 14:57:35;;;;;;;;;;;;;;;;;;6245062;23;20280;-82
2022/08/12 15:02:45;;;;;;;;;;;;;;;;;;6245333;23;19907;-81
2022/08/12 15:05:10;;;;;;;;;;;;;;;;;;6244922;23;19914;-80
2022/08/12 15:07:36;;;;;;;;;;;;;;;;;;6244996;23;19990;-80
2022/08/12 15:10:02;;;;;;;;;;;;;;;;;;6244415;23;19941;-79
2022/08/12 15:12:28;;;;;;;;;;;;;;;;;;6245632;23;19935;-81
2022/08/12 15:14:53;;;;;;;;;;;;;;;;;;6245571;23;19958;-81
2022/08/12 15:17:19;;;;;;;;;;;;;;;;;;6244621;23;19907;-81
2022/08/12 15:19:44;;;;;;;;;;;;;;;;;;6245023;23;19994;-80
2022/08/12 15:22:10;;;;;;;;;;;;;;;;;;6244704;22;19914;-80
2022/08/12 15:24:36;;;;;;;;;;;;;;;;;;6244187;23;19935;-81
2022/08/12 15:27:02;;;;;;;;;;;;;;;;;;6244878;23;19908;-81
2022/08/12 15:29:28;;;;;;;;;;;;;;;;;;6244208;23;20327;-79
2022/08/12 15:31:53;;;;;;;;;;;;;;;;;;6243825;23;19907;-81
2022/08/12 15:34:19;;;;;;;;;;;;;;;;;;6219855;23;20410;-81
2022/08/12 15:36:45;;;;;;;;;;;;;;;;;;6244324;23;20076;-82
2022/08/12 15:39:11;;;;;;;;;;;;;;;;;;6217440;23;19907;-80
2022/08/12 15:41:36;;;;;;;;;;;;;;;;;;6244313;23;19994;-83
2022/08/12 15:44:02;;;;;;;;;;;;;;;;;;6244984;23;19914;-81
2022/08/12 15:46:31;;;;;;;;;;;;;;;;;;6244528;23;20224;-80
2022/08/12 15:48:56;;;;;;;;;;;;;;;;;;6244245;23;19907;-82
2022/08/12 15:51:22;;;;;;;;;;;;;;;;;;6244120;23;20260;-81
2022/08/12 15:54:03;;;;;;;;;;;;;;;;;;6244433;23;20336;-80
2022/08/12 15:56:29;;;;;;;;;;;;;;;;;;6244793;23;19907;-81
2022/08/12 15:58:57;;;;;;;;;;;;;;;;;;6245061;23;20405;-81
2022/08/12 16:01:23;;;;;;;;;;;;;;;;;;6245172;23;19938;-81
2022/08/12 16:03:50;;;;;;;;;;;;;;;;;;6246188;23;19931;-79
2022/08/12 16:06:16;;;;;;;;;;;;;;;;;;6254267;23;19923;-80
2022/08/12 16:08:42;;;;;;;;;;;;;;;;;;6248985;23;19907;-79
2022/08/12 16:11:08;;;;;;;;;;;;;;;;;;6257574;23;19927;-82
2022/08/12 16:13:34;;;;;;;;;;;;;;;;;;6261562;23;19914;-80
2022/08/12 16:16:02;;;;;;;;;;;;;;;;;;6251548;23;19992;-79
2022/08/12 16:18:27;;;;;;;;;;;;;;;;;;6244810;23;20236;-81
2022/08/12 16:20:53;;;;;;;;;;;;;;;;;;6216936;23;19990;-80
2022/08/12 16:23:19;;;;;;;;;;;;;;;;;;6243258;22;19994;-81
2022/08/12 16:25:48;;;;;;;;;;;;;;;;;;6244118;23;19907;-78
2022/08/12 16:28:13;;;;;;;;;;;;;;;;;;6244307;23;19907;-81
2022/08/12 16:30:39;;;;;;;;;;;;;;;;;;6242659;23;19914;-80
2022/08/12 16:33:08;;;;;;;;;;;;;;;;;;6245661;23;19908;-79
2022/08/12 16:35:35;;;;;;;;;;;;;;;;;;6215824;23;20363;-79
2022/08/12 16:38:03;;;;;;;;;;;;;;;;;;6217217;23;19962;-81
2022/08/12 16:40:28;;;;;;;;;;;;;;;;;;6243388;23;19907;-81
2022/08/12 16:42:55;;;;;;;;;;;;;;;;;;6243153;23;19908;-80
2022/08/12 16:45:23;;;;;;;;;;;;;;;;;;6243067;23;20046;-80
2022/08/12 16:47:50;;;;;;;;;;;;;;;;;;6243767;23;20033;-78
2022/08/12 16:50:16;;;;;;;;;;;;;;;;;;6243750;23;19919;-80
2022/08/12 16:52:43;;;;;;;;;;;;;;;;;;6244356;23;19907;-81
2022/08/12 16:55:10;;;;;;;;;;;;;;;;;;6243700;23;19915;-82
2022/08/12 16:57:35;;;;;;;;;;;;;;;;;;6243126;23;20386;-81
2022/08/12 17:00:01;;;;;;;;;;;;;;;;;;6243501;23;20398;-82
2022/08/12 17:02:30;;;;;;;;;;;;;;;;;;6242367;23;20336;-81
2022/08/12 17:04:55;;;;;;;;;;;;;;;;;;6244200;23;19915;-81
2022/08/12 17:07:22;;;;;;;;;;;;;;;;;;6243526;23;19990;-82
2022/08/12 17:09:49;;;;;;;;;;;;;;;;;;6216516;23;19907;-81
2022/08/12 17:12:15;;;;;;;;;;;;;;;;;;6243634;23;19908;-80
2022/08/12 17:14:41;;;;;;;;;;;;;;;;;;6245476;23;20345;-81
2022/08/12 17:17:08;;;;;;;;;;;;;;;;;;6247783;23;19911;-79
2022/08/12 17:19:34;;;;;;;;;;;;;;;;;;6242814;23;19907;-80
2022/08/12 17:22:04;;;;;;;;;;;;;;;;;;6242208;22;19914;-80
2022/08/12 17:24:31;;;;;;;;;;;;;;;;;;6243158;23;19908;-80
2022/08/12 17:26:56;;;;;;;;;;;;;;;;;;6242631;23;19949;-80
2022/08/12 17:29:23;;;;;;;;;;;;;;;;;;6242582;23;19908;-82
2022/08/12 17:31:49;;;;;;;;;;;;;;;;;;6242459;23;20041;-79
2022/08/12 17:35:25;;;;;;;;;;;;;;;;;;6243428;23;19950;-81
2022/08/12 17:37:00;;;;;;;;;;;;;;;;;;6244079;23;19908;-81
2022/08/12 17:39:26;;;;;;;;;;;;;;;;;;6244230;23;19918;-81
2022/08/12 17:41:51;;;;;;;;;;;;;;;;;;6244133;23;20044;-79
2022/08/12 17:44:19;;;;;;;;;;;;;;;;;;6244564;23;19907;-82
2022/08/12 17:46:45;;;;;;;;;;;;;;;;;;6242696;23;20009;-80
2022/08/12 17:49:11;;;;;;;;;;;;;;;;;;6244235;23;19923;-80
2022/08/12 17:51:37;;;;;;;;;;;;;;;;;;6244013;23;19911;-79
2022/08/12 17:54:05;;;;;;;;;;;;;;;;;;6244069;23;20004;-78
2022/08/12 17:56:31;;;;;;;;;;;;;;;;;;6248596;23;19907;-78
2022/08/12 17:58:57;;;;;;;;;;;;;;;;;;6225229;23;19912;-80
2022/08/12 18:01:23;;;;;;;;;;;;;;;;;;6245056;23;20302;-79
2022/08/12 18:03:52;;;;;;;;;;;;;;;;;;6244882;23;20034;-81
2022/08/12 18:06:21;;;;;;;;;;;;;;;;;;6244544;23;20037;-80
2022/08/12 18:08:49;;;;;;;;;;;;;;;;;;6245349;23;19914;-79
2022/08/12 18:14:01;;;;;;;;;;;;;;;;;;6245278;23;19915;-81
2022/08/12 18:16:27;;;;;;;;;;;;;;;;;;6244326;23;19907;-80
2022/08/12 18:18:53;;;;;;;;;;;;;;;;;;6217752;23;20252;-81
2022/08/12 18:21:19;;;;;;;;;;;;;;;;;;6244623;22;19915;-82